»·PEaware :: QXE9372 KRNO-KPDX

QXE9372 :: KRNO-KPDX

FLIGHT INFORMATION

Flight Status: Arrived
Operator:
Horizon Air
More flights by this operator :: More flights under this callsign
Pilot: Andre N. (13929)
Aircraft: DEHAVILLAND DASH 8 400
(DH8D)
More flights by this aircraft type
Origin: KRNO Reno/Tahoe Intl
United States
Destination: KPDX Portland Intl
United States
More flights between these airports :: More routes between these airports
Route: +ZEFFR6 BLKJK LMT MOXEE TMBRS2
File this flight plan on PilotEdge
Remarks:
Altitude:
(Current/Filed)
24,000ft
Speed:
(Current/Filed)
250kts
Departed: 13-Feb-18 12:12 PM
Arrived: 13-Feb-18 01:48 PM
Distance/Time
Traveled:
386nm/1:36
Distance/Time
To Go:
Arrived

Flight Plot

Page will automatically refresh every two minutes.

Flight plan parsing failed; only flown route is shown


Map Options




Map Legend


Flown Route
Filed Route
Departure Airport
Arrival Airport
Navaid (VOR, NDB)
Fix

Horizontal Profiles

Position Reports

Time Latitude Longitude Heading Altitude Ground
Speed
13-Feb-18 11:45 39.503108 -119.772469 180 4422ft 0kts
13-Feb-18 11:46 39.503108 -119.772469 180 4422ft 0kts
13-Feb-18 11:47 39.503108 -119.772469 180 4422ft 0kts
13-Feb-18 11:48 39.503108 -119.772469 180 4422ft 0kts
13-Feb-18 11:49 39.503108 -119.772469 180 4422ft 0kts
13-Feb-18 11:50 39.503108 -119.772469 180 4422ft 0kts
13-Feb-18 11:51 39.503108 -119.772469 180 4422ft 0kts
13-Feb-18 11:52 39.503108 -119.772469 180 4422ft 0kts
13-Feb-18 11:53 39.503108 -119.772469 180 4422ft 0kts
13-Feb-18 11:54 39.503108 -119.772469 180 4422ft 0kts
13-Feb-18 11:55 39.503108 -119.772469 180 4422ft 0kts
13-Feb-18 11:56 39.503108 -119.772469 180 4422ft 0kts
13-Feb-18 11:57 39.503108 -119.772469 180 4422ft 0kts
13-Feb-18 11:58 39.503108 -119.772469 180 4422ft 0kts
13-Feb-18 11:59 39.503108 -119.772469 180 4422ft 0kts
13-Feb-18 12:00 39.503108 -119.772469 180 4422ft 0kts
13-Feb-18 12:01 39.503108 -119.772469 180 4422ft 0kts
13-Feb-18 12:02 39.503108 -119.772469 180 4422ft 0kts
13-Feb-18 12:03 39.503108 -119.772469 180 4422ft 0kts
13-Feb-18 12:04 39.503108 -119.772469 180 4422ft 0kts
13-Feb-18 12:05 39.503108 -119.772469 180 4422ft 0kts
13-Feb-18 12:06 39.503108 -119.772469 180 4422ft 0kts
13-Feb-18 12:07 39.503106 -119.772469 179 4422ft 0kts
13-Feb-18 12:08 39.503420 -119.772468 180 4422ft 1kts
13-Feb-18 12:09 39.503736 -119.772855 89 4422ft 0kts
13-Feb-18 12:10 39.503736 -119.772854 89 4422ft 0kts
13-Feb-18 12:11 39.503736 -119.772854 89 4422ft 0kts
13-Feb-18 12:12 39.503736 -119.772854 89 4422ft 0kts
13-Feb-18 12:13 39.503887 -119.771622 39 4422ft 9kts
13-Feb-18 12:14 39.507020 -119.771489 0 4422ft 12kts
13-Feb-18 12:15 39.510460 -119.771482 0 4422ft 12kts
13-Feb-18 12:16 39.513630 -119.771318 35 4422ft 8kts
13-Feb-18 12:17 39.513759 -119.770598 91 4422ft 0kts
13-Feb-18 12:18 39.513743 -119.770120 91 4422ft 7kts
13-Feb-18 12:19 39.509425 -119.769225 179 4422ft 89kts
13-Feb-18 12:20 39.465649 -119.768644 178 6237ft 174kts
13-Feb-18 12:21 39.418239 -119.769357 176 8696ft 180kts
13-Feb-18 12:22 39.369756 -119.769572 174 11421ft 175kts
13-Feb-18 12:23 39.323348 -119.764521 128 13802ft 169kts
13-Feb-18 12:24 39.298161 -119.715485 117 16332ft 168kts
13-Feb-18 12:25 39.277263 -119.665399 87 18530ft 167kts
13-Feb-18 12:26 39.299401 -119.612453 62 20607ft 172kts
13-Feb-18 12:27 39.325778 -119.561568 60 22522ft 173kts
13-Feb-18 12:28 39.353181 -119.511142 50 24213ft 177kts
13-Feb-18 12:29 39.395112 -119.459528 48 24366ft 242kts
13-Feb-18 12:30 39.449472 -119.394042 47 24352ft 288kts
13-Feb-18 12:31 39.524962 -119.364613 345 24383ft 353kts
13-Feb-18 12:32 39.612170 -119.430294 334 24343ft 372kts
13-Feb-18 12:33 39.698389 -119.504430 333 24342ft 375kts
13-Feb-18 12:34 39.784167 -119.578800 333 24331ft 367kts
13-Feb-18 12:35 39.865999 -119.649941 333 24330ft 357kts
13-Feb-18 12:36 39.944492 -119.718371 333 24332ft 352kts
13-Feb-18 12:37 40.022163 -119.786270 334 24333ft 349kts
13-Feb-18 12:38 40.102135 -119.856371 333 24336ft 352kts
13-Feb-18 12:39 40.181007 -119.925721 333 24339ft 354kts
13-Feb-18 12:40 40.262533 -119.997607 333 24339ft 356kts
13-Feb-18 12:41 40.344278 -120.069911 333 24340ft 357kts
13-Feb-18 12:42 40.421494 -120.138401 333 24340ft 357kts
13-Feb-18 12:43 40.503434 -120.211295 333 24340ft 358kts
13-Feb-18 12:44 40.584923 -120.284001 333 24340ft 358kts
13-Feb-18 12:45 40.666891 -120.357354 333 24341ft 358kts
13-Feb-18 12:46 40.748699 -120.430792 333 24342ft 358kts
13-Feb-18 12:47 40.830353 -120.504310 333 24340ft 358kts
13-Feb-18 12:48 40.898687 -120.566007 333 24327ft 359kts
13-Feb-18 12:49 40.980438 -120.640001 333 24318ft 359kts
13-Feb-18 12:50 41.071702 -120.722851 331 24306ft 354kts
13-Feb-18 12:51 41.150866 -120.795028 330 24309ft 350kts
13-Feb-18 12:52 41.217064 -120.855552 330 24310ft 347kts
13-Feb-18 12:53 41.307809 -120.938716 331 24311ft 346kts
13-Feb-18 12:54 41.373245 -120.998850 330 24312ft 345kts
13-Feb-18 12:55 41.451327 -121.070816 330 24312ft 343kts
13-Feb-18 12:56 41.528872 -121.142501 330 24311ft 341kts
13-Feb-18 12:57 41.605817 -121.213848 330 24311ft 339kts
13-Feb-18 12:58 41.682630 -121.285296 330 24321ft 338kts
13-Feb-18 12:59 41.759133 -121.356647 330 24328ft 337kts
13-Feb-18 13:00 41.835434 -121.428023 330 24329ft 337kts
13-Feb-18 13:01 41.911592 -121.499483 330 24328ft 337kts
13-Feb-18 13:02 41.987903 -121.571292 330 24328ft 336kts
13-Feb-18 13:03 42.063766 -121.642895 330 24328ft 336kts
13-Feb-18 13:04 42.138385 -121.713528 329 24330ft 336kts
13-Feb-18 13:05 42.221498 -121.761225 343 24331ft 329kts
13-Feb-18 13:06 42.306713 -121.803912 343 24329ft 330kts
13-Feb-18 13:07 42.392257 -121.846657 343 24329ft 330kts
13-Feb-18 13:08 42.477943 -121.889584 343 24329ft 331kts
13-Feb-18 13:09 42.563235 -121.932440 343 24329ft 332kts
13-Feb-18 13:10 42.649476 -121.975897 343 24328ft 333kts
13-Feb-18 13:11 42.735822 -122.019537 343 24328ft 333kts
13-Feb-18 13:12 42.820270 -122.062346 343 24328ft 333kts
13-Feb-18 13:13 42.905269 -122.105520 343 24326ft 333kts
13-Feb-18 13:14 42.991416 -122.149402 341 24311ft 333kts
13-Feb-18 13:15 43.077847 -122.193663 341 24300ft 334kts
13-Feb-18 13:16 43.162849 -122.237295 341 24303ft 335kts
13-Feb-18 13:17 43.249587 -122.281893 339 24282ft 336kts
13-Feb-18 13:18 43.335187 -122.326102 339 24296ft 336kts
13-Feb-18 13:19 43.422490 -122.371297 339 24300ft 336kts
13-Feb-18 13:20 43.509436 -122.416446 339 24301ft 336kts
13-Feb-18 13:21 43.596530 -122.461810 339 24305ft 336kts
13-Feb-18 13:22 43.683491 -122.507247 339 24310ft 336kts
13-Feb-18 13:23 43.769617 -122.552386 339 24310ft 336kts
13-Feb-18 13:24 43.856658 -122.598147 339 24309ft 336kts
13-Feb-18 13:25 43.943637 -122.644051 339 24309ft 336kts
13-Feb-18 13:26 44.030102 -122.689966 339 24309ft 336kts
13-Feb-18 13:27 44.114479 -122.734788 339 24312ft 336kts
13-Feb-18 13:28 44.201494 -122.747090 2 24311ft 336kts
13-Feb-18 13:29 44.292372 -122.739079 3 24312ft 337kts
13-Feb-18 13:30 44.385035 -122.729988 3 24312ft 337kts
13-Feb-18 13:31 44.478001 -122.720788 3 24305ft 337kts
13-Feb-18 13:32 44.555886 -122.713053 3 23283ft 329kts
13-Feb-18 13:33 44.646390 -122.704008 3 21602ft 330kts
13-Feb-18 13:34 44.738427 -122.694755 3 19215ft 338kts
13-Feb-18 13:35 44.832255 -122.685300 3 16449ft 340kts
13-Feb-18 13:36 44.921123 -122.676349 3 13996ft 330kts
13-Feb-18 13:37 45.007738 -122.667561 2 12290ft 301kts
13-Feb-18 13:38 45.086795 -122.659529 2 10666ft 271kts
13-Feb-18 13:39 45.155755 -122.652569 1 9248ft 248kts
13-Feb-18 13:40 45.220670 -122.645978 2 7828ft 230kts
13-Feb-18 13:41 45.279852 -122.660999 339 7236ft 215kts
13-Feb-18 13:42 45.334088 -122.689682 338 7240ft 211kts
13-Feb-18 13:43 45.390700 -122.720535 338 6489ft 221kts
13-Feb-18 13:44 45.447477 -122.751672 338 5228ft 221kts
13-Feb-18 13:45 45.500606 -122.780880 338 5007ft 190kts
13-Feb-18 13:46 45.550612 -122.808180 338 4965ft 192kts
13-Feb-18 13:47 45.587440 -122.850016 306 4383ft 170kts
13-Feb-18 13:48 45.615048 -122.906786 305 3807ft 180kts
13-Feb-18 13:49 45.656337 -122.899209 35 3276ft 180kts
13-Feb-18 13:50 45.683493 -122.844662 102 2539ft 180kts
13-Feb-18 13:51 45.658446 -122.784325 119 2016ft 170kts
13-Feb-18 13:52 45.636036 -122.726773 119 1913ft 152kts
13-Feb-18 13:53 45.617084 -122.679038 121 1026ft 126kts
13-Feb-18 13:54 45.601127 -122.636812 121 340ft 115kts
13-Feb-18 13:55 45.589336 -122.606522 113 30ft 23kts
13-Feb-18 13:56 45.589335 -122.604814 50 30ft 0kts
13-Feb-18 13:57 45.590053 -122.603705 58 30ft 0kts
13-Feb-18 13:58 45.588559 -122.599183 119 30ft 21kts
13-Feb-18 13:59 45.586756 -122.594048 41 30ft 6kts
13-Feb-18 14:00 45.587087 -122.593721 32 30ft 0kts

Navigation Log

Ident Type
Flight plan parsing failed, navigation log unavailable